sensor_id;sensor_type;location;lat;lon;timestamp;P1;durP1;ratioP1;P2;durP2;ratioP2
15693;SDS011;7947;48.834;9.132;2023-06-22T00:02:25;8.00;;;5.15;;
15693;SDS011;7947;48.834;9.132;2023-06-22T00:05:28;5.90;;;4.80;;
15693;SDS011;7947;48.834;9.132;2023-06-22T00:08:30;6.78;;;4.80;;
15693;SDS011;7947;48.834;9.132;2023-06-22T00:11:33;6.22;;;4.63;;
15693;SDS011;7947;48.834;9.132;2023-06-22T00:14:37;8.00;;;5.45;;
15693;SDS011;7947;48.834;9.132;2023-06-22T00:17:40;6.68;;;4.55;;
15693;SDS011;7947;48.834;9.132;2023-06-22T00:20:43;6.93;;;4.22;;
15693;SDS011;7947;48.834;9.132;2023-06-22T00:23:46;5.60;;;4.72;;
15693;SDS011;7947;48.834;9.132;2023-06-22T00:26:49;5.47;;;4.63;;
15693;SDS011;7947;48.834;9.132;2023-06-22T00:29:53;7.43;;;4.47;;
15693;SDS011;7947;48.834;9.132;2023-06-22T00:32:56;6.60;;;4.65;;
15693;SDS011;7947;48.834;9.132;2023-06-22T00:35:59;6.60;;;4.47;;
15693;SDS011;7947;48.834;9.132;2023-06-22T00:39:04;7.18;;;5.32;;
15693;SDS011;7947;48.834;9.132;2023-06-22T00:42:08;6.60;;;4.97;;
15693;SDS011;7947;48.834;9.132;2023-06-22T00:45:12;6.30;;;5.13;;
15693;SDS011;7947;48.834;9.132;2023-06-22T00:48:15;6.93;;;5.13;;
15693;SDS011;7947;48.834;9.132;2023-06-22T00:51:18;6.60;;;5.47;;
15693;SDS011;7947;48.834;9.132;2023-06-22T00:54:25;6.60;;;5.45;;
15693;SDS011;7947;48.834;9.132;2023-06-22T00:57:28;5.93;;;4.75;;
15693;SDS011;7947;48.834;9.132;2023-06-22T01:00:32;6.65;;;4.70;;
15693;SDS011;7947;48.834;9.132;2023-06-22T01:03:35;6.60;;;5.00;;
15693;SDS011;7947;48.834;9.132;2023-06-22T01:06:40;9.10;;;5.50;;
15693;SDS011;7947;48.834;9.132;2023-06-22T01:09:49;9.00;;;5.63;;
15693;SDS011;7947;48.834;9.132;2023-06-22T01:13:00;7.25;;;5.15;;
15693;SDS011;7947;48.834;9.132;2023-06-22T01:16:08;6.50;;;5.03;;
15693;SDS011;7947;48.834;9.132;2023-06-22T01:19:20;5.75;;;5.15;;
15693;SDS011;7947;48.834;9.132;2023-06-22T01:22:39;6.70;;;5.20;;
15693;SDS011;7947;48.834;9.132;2023-06-22T01:25:54;7.53;;;5.50;;
15693;SDS011;7947;48.834;9.132;2023-06-22T01:29:06;10.27;;;6.03;;
15693;SDS011;7947;48.834;9.132;2023-06-22T01:32:13;7.65;;;5.60;;
15693;SDS011;7947;48.834;9.132;2023-06-22T01:35:17;5.75;;;5.10;;
15693;SDS011;7947;48.834;9.132;2023-06-22T01:38:21;7.93;;;4.65;;
15693;SDS011;7947;48.834;9.132;2023-06-22T01:41:25;7.25;;;5.30;;
15693;SDS011;7947;48.834;9.132;2023-06-22T01:44:31;8.88;;;5.93;;
15693;SDS011;7947;48.834;9.132;2023-06-22T01:47:35;6.80;;;4.97;;
15693;SDS011;7947;48.834;9.132;2023-06-22T01:50:38;7.20;;;5.30;;
15693;SDS011;7947;48.834;9.132;2023-06-22T01:53:41;7.10;;;5.40;;
15693;SDS011;7947;48.834;9.132;2023-06-22T01:56:44;5.75;;;4.40;;
15693;SDS011;7947;48.834;9.132;2023-06-22T01:59:50;5.38;;;4.35;;
15693;SDS011;7947;48.834;9.132;2023-06-22T02:03:01;6.53;;;5.63;;
15693;SDS011;7947;48.834;9.132;2023-06-22T02:06:08;7.55;;;4.95;;
15693;SDS011;7947;48.834;9.132;2023-06-22T02:09:15;6.53;;;5.18;;
15693;SDS011;7947;48.834;9.132;2023-06-22T02:12:21;6.70;;;5.05;;
15693;SDS011;7947;48.834;9.132;2023-06-22T02:15:27;6.60;;;5.32;;
15693;SDS011;7947;48.834;9.132;2023-06-22T02:18:30;5.32;;;4.60;;
15693;SDS011;7947;48.834;9.132;2023-06-22T02:21:33;7.53;;;4.82;;
15693;SDS011;7947;48.834;9.132;2023-06-22T02:24:36;5.63;;;4.65;;
15693;SDS011;7947;48.834;9.132;2023-06-22T02:27:38;6.60;;;5.22;;
15693;SDS011;7947;48.834;9.132;2023-06-22T02:30:43;8.10;;;4.78;;
15693;SDS011;7947;48.834;9.132;2023-06-22T02:33:46;7.65;;;4.45;;
15693;SDS011;7947;48.834;9.132;2023-06-22T02:36:49;5.40;;;4.47;;
15693;SDS011;7947;48.834;9.132;2023-06-22T02:39:53;5.95;;;4.60;;
15693;SDS011;7947;48.834;9.132;2023-06-22T02:42:56;5.90;;;4.88;;
15693;SDS011;7947;48.834;9.132;2023-06-22T02:46:09;6.43;;;4.75;;
15693;SDS011;7947;48.834;9.132;2023-06-22T02:49:22;6.75;;;5.43;;
15693;SDS011;7947;48.834;9.132;2023-06-22T02:52:47;5.80;;;5.00;;
15693;SDS011;7947;48.834;9.132;2023-06-22T02:55:55;7.13;;;4.75;;
15693;SDS011;7947;48.834;9.132;2023-06-22T02:59:08;7.80;;;5.07;;
15693;SDS011;7947;48.834;9.132;2023-06-22T03:02:27;5.28;;;4.78;;
15693;SDS011;7947;48.834;9.132;2023-06-22T03:05:49;7.15;;;5.38;;
15693;SDS011;7947;48.834;9.132;2023-06-22T03:09:01;7.28;;;5.35;;
15693;SDS011;7947;48.834;9.132;2023-06-22T03:12:20;5.13;;;4.07;;
15693;SDS011;7947;48.834;9.132;2023-06-22T03:15:29;6.40;;;5.07;;
15693;SDS011;7947;48.834;9.132;2023-06-22T03:18:45;6.53;;;5.25;;
15693;SDS011;7947;48.834;9.132;2023-06-22T03:22:00;7.85;;;5.03;;
15693;SDS011;7947;48.834;9.132;2023-06-22T03:25:18;6.38;;;4.45;;
15693;SDS011;7947;48.834;9.132;2023-06-22T03:28:43;7.55;;;5.00;;
15693;SDS011;7947;48.834;9.132;2023-06-22T03:32:21;6.05;;;4.65;;
15693;SDS011;7947;48.834;9.132;2023-06-22T03:35:54;6.28;;;4.60;;
15693;SDS011;7947;48.834;9.132;2023-06-22T03:39:17;5.95;;;4.60;;
15693;SDS011;7947;48.834;9.132;2023-06-22T03:42:42;8.20;;;5.05;;
15693;SDS011;7947;48.834;9.132;2023-06-22T03:46:08;5.20;;;4.50;;
15693;SDS011;7947;48.834;9.132;2023-06-22T03:49:24;4.80;;;4.22;;
15693;SDS011;7947;48.834;9.132;2023-06-22T03:52:52;9.18;;;5.90;;
15693;SDS011;7947;48.834;9.132;2023-06-22T03:56:15;8.20;;;5.28;;
15693;SDS011;7947;48.834;9.132;2023-06-22T03:59:26;6.03;;;5.13;;
15693;SDS011;7947;48.834;9.132;2023-06-22T04:02:42;7.70;;;5.75;;
15693;SDS011;7947;48.834;9.132;2023-06-22T04:06:07;8.73;;;5.38;;
15693;SDS011;7947;48.834;9.132;2023-06-22T04:09:28;7.70;;;4.78;;
15693;SDS011;7947;48.834;9.132;2023-06-22T04:13:12;7.18;;;5.15;;
15693;SDS011;7947;48.834;9.132;2023-06-22T04:16:46;9.13;;;6.25;;
15693;SDS011;7947;48.834;9.132;2023-06-22T04:20:00;7.28;;;5.25;;
15693;SDS011;7947;48.834;9.132;2023-06-22T04:23:18;8.57;;;5.30;;
15693;SDS011;7947;48.834;9.132;2023-06-22T04:26:32;6.65;;;5.65;;
15693;SDS011;7947;48.834;9.132;2023-06-22T04:29:44;6.03;;;4.85;;
15693;SDS011;7947;48.834;9.132;2023-06-22T04:33:06;6.32;;;5.40;;
15693;SDS011;7947;48.834;9.132;2023-06-22T04:36:32;8.55;;;5.53;;
15693;SDS011;7947;48.834;9.132;2023-06-22T04:39:55;7.13;;;4.88;;
15693;SDS011;7947;48.834;9.132;2023-06-22T04:43:12;5.90;;;5.15;;
15693;SDS011;7947;48.834;9.132;2023-06-22T04:46:25;9.13;;;5.10;;
15693;SDS011;7947;48.834;9.132;2023-06-22T04:49:46;6.13;;;5.03;;
15693;SDS011;7947;48.834;9.132;2023-06-22T04:53:16;5.82;;;4.53;;
15693;SDS011;7947;48.834;9.132;2023-06-22T04:56:31;5.88;;;4.55;;
15693;SDS011;7947;48.834;9.132;2023-06-22T04:59:49;9.10;;;5.28;;
15693;SDS011;7947;48.834;9.132;2023-06-22T05:03:18;7.50;;;5.70;;
15693;SDS011;7947;48.834;9.132;2023-06-22T05:06:30;8.73;;;5.75;;
15693;SDS011;7947;48.834;9.132;2023-06-22T05:09:44;7.45;;;5.65;;
15693;SDS011;7947;48.834;9.132;2023-06-22T05:13:01;6.10;;;5.43;;
15693;SDS011;7947;48.834;9.132;2023-06-22T05:16:24;7.00;;;5.90;;
15693;SDS011;7947;48.834;9.132;2023-06-22T05:19:50;9.10;;;6.15;;
15693;SDS011;7947;48.834;9.132;2023-06-22T05:23:01;8.25;;;6.22;;
15693;SDS011;7947;48.834;9.132;2023-06-22T05:26:12;7.07;;;6.10;;
15693;SDS011;7947;48.834;9.132;2023-06-22T05:29:22;6.90;;;5.03;;
15693;SDS011;7947;48.834;9.132;2023-06-22T05:32:32;7.78;;;5.60;;
15693;SDS011;7947;48.834;9.132;2023-06-22T05:35:36;6.57;;;5.38;;
15693;SDS011;7947;48.834;9.132;2023-06-22T05:38:39;10.02;;;5.28;;
15693;SDS011;7947;48.834;9.132;2023-06-22T05:41:42;6.78;;;4.93;;
15693;SDS011;7947;48.834;9.132;2023-06-22T05:44:47;7.93;;;5.20;;
15693;SDS011;7947;48.834;9.132;2023-06-22T05:47:51;7.63;;;5.63;;
15693;SDS011;7947;48.834;9.132;2023-06-22T05:50:54;8.15;;;5.43;;
15693;SDS011;7947;48.834;9.132;2023-06-22T05:53:57;7.85;;;6.32;;
15693;SDS011;7947;48.834;9.132;2023-06-22T05:56:59;7.00;;;5.07;;
15693;SDS011;7947;48.834;9.132;2023-06-22T06:00:02;8.82;;;5.80;;
15693;SDS011;7947;48.834;9.132;2023-06-22T06:03:09;7.85;;;5.03;;
15693;SDS011;7947;48.834;9.132;2023-06-22T06:06:16;6.45;;;4.68;;
15693;SDS011;7947;48.834;9.132;2023-06-22T06:09:19;6.18;;;4.90;;
15693;SDS011;7947;48.834;9.132;2023-06-22T06:12:22;7.53;;;5.90;;
15693;SDS011;7947;48.834;9.132;2023-06-22T06:15:24;9.07;;;5.57;;
15693;SDS011;7947;48.834;9.132;2023-06-22T06:18:28;7.05;;;4.70;;
15693;SDS011;7947;48.834;9.132;2023-06-22T06:21:31;6.35;;;4.43;;
15693;SDS011;7947;48.834;9.132;2023-06-22T06:24:34;5.38;;;4.57;;
15693;SDS011;7947;48.834;9.132;2023-06-22T06:27:37;7.00;;;5.47;;
15693;SDS011;7947;48.834;9.132;2023-06-22T06:30:39;6.55;;;4.90;;
15693;SDS011;7947;48.834;9.132;2023-06-22T06:33:43;7.55;;;5.28;;
15693;SDS011;7947;48.834;9.132;2023-06-22T06:36:46;7.65;;;4.97;;
15693;SDS011;7947;48.834;9.132;2023-06-22T06:39:49;9.23;;;4.43;;
15693;SDS011;7947;48.834;9.132;2023-06-22T06:42:52;9.38;;;4.93;;
15693;SDS011;7947;48.834;9.132;2023-06-22T06:45:54;7.63;;;5.47;;
15693;SDS011;7947;48.834;9.132;2023-06-22T06:48:58;6.32;;;4.72;;
15693;SDS011;7947;48.834;9.132;2023-06-22T06:52:01;7.18;;;5.38;;
15693;SDS011;7947;48.834;9.132;2023-06-22T06:55:04;8.05;;;5.03;;
15693;SDS011;7947;48.834;9.132;2023-06-22T06:58:09;5.43;;;4.20;;
15693;SDS011;7947;48.834;9.132;2023-06-22T07:01:14;8.43;;;5.38;;
15693;SDS011;7947;48.834;9.132;2023-06-22T07:04:18;7.47;;;5.18;;
15693;SDS011;7947;48.834;9.132;2023-06-22T07:07:21;4.57;;;3.97;;
15693;SDS011;7947;48.834;9.132;2023-06-22T07:10:23;8.02;;;4.80;;
15693;SDS011;7947;48.834;9.132;2023-06-22T07:13:26;6.57;;;4.80;;
15693;SDS011;7947;48.834;9.132;2023-06-22T07:16:29;5.78;;;4.70;;
15693;SDS011;7947;48.834;9.132;2023-06-22T07:19:34;6.15;;;4.68;;
15693;SDS011;7947;48.834;9.132;2023-06-22T07:22:37;5.85;;;4.57;;
15693;SDS011;7947;48.834;9.132;2023-06-22T07:25:40;6.78;;;5.05;;
15693;SDS011;7947;48.834;9.132;2023-06-22T07:28:42;5.05;;;3.97;;
15693;SDS011;7947;48.834;9.132;2023-06-22T07:31:45;6.32;;;4.30;;
15693;SDS011;7947;48.834;9.132;2023-06-22T07:34:49;6.00;;;5.15;;
15693;SDS011;7947;48.834;9.132;2023-06-22T07:37:52;5.20;;;4.10;;
15693;SDS011;7947;48.834;9.132;2023-06-22T07:40:55;6.68;;;4.40;;
15693;SDS011;7947;48.834;9.132;2023-06-22T07:43:57;5.60;;;3.72;;
15693;SDS011;7947;48.834;9.132;2023-06-22T07:47:00;5.15;;;4.45;;
15693;SDS011;7947;48.834;9.132;2023-06-22T07:50:05;4.80;;;3.83;;
15693;SDS011;7947;48.834;9.132;2023-06-22T07:53:08;5.20;;;3.35;;
15693;SDS011;7947;48.834;9.132;2023-06-22T07:56:11;6.03;;;4.40;;
15693;SDS011;7947;48.834;9.132;2023-06-22T07:59:14;5.00;;;4.07;;
15693;SDS011;7947;48.834;9.132;2023-06-22T08:02:16;6.20;;;3.72;;
15693;SDS011;7947;48.834;9.132;2023-06-22T08:05:20;6.95;;;4.25;;
15693;SDS011;7947;48.834;9.132;2023-06-22T08:08:23;7.43;;;3.97;;
15693;SDS011;7947;48.834;9.132;2023-06-22T08:11:26;6.65;;;4.03;;
15693;SDS011;7947;48.834;9.132;2023-06-22T08:14:29;5.55;;;4.05;;
15693;SDS011;7947;48.834;9.132;2023-06-22T08:17:32;7.18;;;4.28;;
15693;SDS011;7947;48.834;9.132;2023-06-22T08:20:37;7.00;;;3.70;;
15693;SDS011;7947;48.834;9.132;2023-06-22T08:23:39;3.80;;;3.22;;
15693;SDS011;7947;48.834;9.132;2023-06-22T08:26:42;4.68;;;3.50;;
15693;SDS011;7947;48.834;9.132;2023-06-22T08:29:45;4.53;;;3.78;;
15693;SDS011;7947;48.834;9.132;2023-06-22T08:32:47;5.22;;;3.58;;
15693;SDS011;7947;48.834;9.132;2023-06-22T08:35:51;7.07;;;3.35;;
15693;SDS011;7947;48.834;9.132;2023-06-22T08:38:54;4.13;;;3.58;;
15693;SDS011;7947;48.834;9.132;2023-06-22T08:42:04;5.07;;;3.75;;
15693;SDS011;7947;48.834;9.132;2023-06-22T08:45:07;6.00;;;2.97;;
15693;SDS011;7947;48.834;9.132;2023-06-22T08:48:11;4.65;;;3.33;;
15693;SDS011;7947;48.834;9.132;2023-06-22T08:51:15;4.63;;;3.72;;
15693;SDS011;7947;48.834;9.132;2023-06-22T08:54:18;4.60;;;3.28;;
15693;SDS011;7947;48.834;9.132;2023-06-22T08:57:21;5.80;;;3.75;;
15693;SDS011;7947;48.834;9.132;2023-06-22T09:00:24;4.97;;;4.05;;
15693;SDS011;7947;48.834;9.132;2023-06-22T09:03:27;4.93;;;4.03;;
15693;SDS011;7947;48.834;9.132;2023-06-22T09:06:32;4.03;;;3.05;;
15693;SDS011;7947;48.834;9.132;2023-06-22T09:09:34;4.78;;;3.35;;
15693;SDS011;7947;48.834;9.132;2023-06-22T09:12:38;5.10;;;3.00;;
15693;SDS011;7947;48.834;9.132;2023-06-22T09:15:41;4.30;;;3.13;;
15693;SDS011;7947;48.834;9.132;2023-06-22T09:18:46;6.85;;;4.05;;
15693;SDS011;7947;48.834;9.132;2023-06-22T09:21:51;4.00;;;3.30;;
15693;SDS011;7947;48.834;9.132;2023-06-22T09:24:54;5.88;;;3.58;;
15693;SDS011;7947;48.834;9.132;2023-06-22T09:27:58;6.90;;;4.15;;
15693;SDS011;7947;48.834;9.132;2023-06-22T09:31:00;5.50;;;3.75;;
15693;SDS011;7947;48.834;9.132;2023-06-22T09:34:03;5.65;;;3.65;;
15693;SDS011;7947;48.834;9.132;2023-06-22T09:37:08;6.78;;;3.22;;
15693;SDS011;7947;48.834;9.132;2023-06-22T09:40:10;7.85;;;3.50;;
15693;SDS011;7947;48.834;9.132;2023-06-22T09:43:27;5.80;;;3.67;;
15693;SDS011;7947;48.834;9.132;2023-06-22T09:46:29;5.15;;;3.95;;
15693;SDS011;7947;48.834;9.132;2023-06-22T09:49:32;5.65;;;3.58;;
15693;SDS011;7947;48.834;9.132;2023-06-22T09:52:49;4.43;;;3.20;;
15693;SDS011;7947;48.834;9.132;2023-06-22T09:55:56;6.38;;;3.80;;
15693;SDS011;7947;48.834;9.132;2023-06-22T09:58:59;5.68;;;4.18;;
15693;SDS011;7947;48.834;9.132;2023-06-22T10:02:18;7.30;;;3.67;;
15693;SDS011;7947;48.834;9.132;2023-06-22T10:05:21;7.18;;;4.10;;
15693;SDS011;7947;48.834;9.132;2023-06-22T10:08:26;5.53;;;3.58;;
15693;SDS011;7947;48.834;9.132;2023-06-22T10:11:28;7.50;;;3.85;;
15693;SDS011;7947;48.834;9.132;2023-06-22T10:14:32;5.63;;;3.67;;
15693;SDS011;7947;48.834;9.132;2023-06-22T10:17:35;5.40;;;3.63;;
15693;SDS011;7947;48.834;9.132;2023-06-22T10:20:38;6.85;;;3.80;;
15693;SDS011;7947;48.834;9.132;2023-06-22T10:23:42;6.55;;;3.78;;
15693;SDS011;7947;48.834;9.132;2023-06-22T10:26:45;5.95;;;3.88;;
15693;SDS011;7947;48.834;9.132;2023-06-22T10:29:47;10.48;;;3.90;;
15693;SDS011;7947;48.834;9.132;2023-06-22T10:32:50;8.35;;;4.13;;
15693;SDS011;7947;48.834;9.132;2023-06-22T10:35:53;5.35;;;3.22;;
15693;SDS011;7947;48.834;9.132;2023-06-22T10:38:57;6.32;;;4.18;;
15693;SDS011;7947;48.834;9.132;2023-06-22T10:42:03;8.63;;;4.13;;
15693;SDS011;7947;48.834;9.132;2023-06-22T10:45:07;5.07;;;3.75;;
15693;SDS011;7947;48.834;9.132;2023-06-22T10:48:10;6.93;;;3.85;;
15693;SDS011;7947;48.834;9.132;2023-06-22T10:51:13;5.47;;;4.30;;
15693;SDS011;7947;48.834;9.132;2023-06-22T10:54:17;7.47;;;4.22;;
15693;SDS011;7947;48.834;9.132;2023-06-22T10:57:21;5.03;;;3.30;;
15693;SDS011;7947;48.834;9.132;2023-06-22T11:00:24;4.50;;;3.63;;
15693;SDS011;7947;48.834;9.132;2023-06-22T11:03:27;5.57;;;3.75;;
15693;SDS011;7947;48.834;9.132;2023-06-22T11:06:29;4.78;;;3.63;;
15693;SDS011;7947;48.834;9.132;2023-06-22T11:09:34;7.00;;;3.65;;
15693;SDS011;7947;48.834;9.132;2023-06-22T11:12:36;5.65;;;3.47;;
15693;SDS011;7947;48.834;9.132;2023-06-22T11:15:39;5.63;;;3.53;;
15693;SDS011;7947;48.834;9.132;2023-06-22T11:18:42;6.18;;;4.28;;
15693;SDS011;7947;48.834;9.132;2023-06-22T11:21:47;7.00;;;3.45;;
15693;SDS011;7947;48.834;9.132;2023-06-22T11:24:51;6.28;;;4.13;;
15693;SDS011;7947;48.834;9.132;2023-06-22T11:27:53;5.13;;;3.38;;
15693;SDS011;7947;48.834;9.132;2023-06-22T11:30:56;7.13;;;3.80;;
15693;SDS011;7947;48.834;9.132;2023-06-22T11:34:05;5.95;;;3.60;;
15693;SDS011;7947;48.834;9.132;2023-06-22T11:37:11;8.32;;;4.18;;
15693;SDS011;7947;48.834;9.132;2023-06-22T11:40:20;7.97;;;4.03;;
15693;SDS011;7947;48.834;9.132;2023-06-22T11:43:24;10.13;;;4.13;;
15693;SDS011;7947;48.834;9.132;2023-06-22T11:46:27;6.35;;;4.05;;
15693;SDS011;7947;48.834;9.132;2023-06-22T11:49:30;5.70;;;3.70;;
15693;SDS011;7947;48.834;9.132;2023-06-22T11:52:33;6.82;;;4.50;;
15693;SDS011;7947;48.834;9.132;2023-06-22T11:55:39;5.05;;;4.15;;
15693;SDS011;7947;48.834;9.132;2023-06-22T11:58:41;6.07;;;4.18;;
15693;SDS011;7947;48.834;9.132;2023-06-22T12:01:44;8.05;;;3.90;;
15693;SDS011;7947;48.834;9.132;2023-06-22T12:04:47;6.47;;;3.90;;
15693;SDS011;7947;48.834;9.132;2023-06-22T12:07:53;7.32;;;4.10;;
15693;SDS011;7947;48.834;9.132;2023-06-22T12:10:58;7.85;;;3.80;;
15693;SDS011;7947;48.834;9.132;2023-06-22T12:14:00;4.90;;;3.58;;
15693;SDS011;7947;48.834;9.132;2023-06-22T12:17:04;6.97;;;4.30;;
15693;SDS011;7947;48.834;9.132;2023-06-22T12:20:07;8.85;;;4.07;;
15693;SDS011;7947;48.834;9.132;2023-06-22T12:23:10;6.65;;;3.42;;
15693;SDS011;7947;48.834;9.132;2023-06-22T12:26:14;8.15;;;3.92;;
15693;SDS011;7947;48.834;9.132;2023-06-22T12:29:17;5.00;;;3.67;;
15693;SDS011;7947;48.834;9.132;2023-06-22T12:32:20;5.22;;;3.92;;
15693;SDS011;7947;48.834;9.132;2023-06-22T12:35:22;7.75;;;3.97;;
15693;SDS011;7947;48.834;9.132;2023-06-22T12:38:26;5.40;;;3.33;;
15693;SDS011;7947;48.834;9.132;2023-06-22T12:41:30;4.90;;;3.60;;
15693;SDS011;7947;48.834;9.132;2023-06-22T12:44:33;6.50;;;3.67;;
15693;SDS011;7947;48.834;9.132;2023-06-22T12:47:36;5.97;;;3.50;;
15693;SDS011;7947;48.834;9.132;2023-06-22T12:50:39;4.60;;;3.60;;
15693;SDS011;7947;48.834;9.132;2023-06-22T12:53:41;5.72;;;3.30;;
15693;SDS011;7947;48.834;9.132;2023-06-22T12:56:46;8.00;;;4.22;;
15693;SDS011;7947;48.834;9.132;2023-06-22T12:59:49;9.07;;;3.75;;
15693;SDS011;7947;48.834;9.132;2023-06-22T13:02:52;7.55;;;3.85;;
15693;SDS011;7947;48.834;9.132;2023-06-22T13:05:57;6.65;;;3.70;;
15693;SDS011;7947;48.834;9.132;2023-06-22T13:09:00;7.68;;;3.75;;
15693;SDS011;7947;48.834;9.132;2023-06-22T13:12:07;8.13;;;3.40;;
15693;SDS011;7947;48.834;9.132;2023-06-22T13:15:11;8.93;;;4.07;;
15693;SDS011;7947;48.834;9.132;2023-06-22T13:18:13;6.35;;;3.95;;
15693;SDS011;7947;48.834;9.132;2023-06-22T13:21:16;6.05;;;3.55;;
15693;SDS011;7947;48.834;9.132;2023-06-22T13:24:19;6.22;;;3.92;;
15693;SDS011;7947;48.834;9.132;2023-06-22T13:27:23;6.40;;;4.05;;
15693;SDS011;7947;48.834;9.132;2023-06-22T13:30:26;5.43;;;4.35;;
15693;SDS011;7947;48.834;9.132;2023-06-22T13:33:29;7.13;;;4.05;;
15693;SDS011;7947;48.834;9.132;2023-06-22T13:36:50;7.70;;;3.88;;
15693;SDS011;7947;48.834;9.132;2023-06-22T13:39:55;5.03;;;3.72;;
15693;SDS011;7947;48.834;9.132;2023-06-22T13:43:02;6.53;;;3.83;;
15693;SDS011;7947;48.834;9.132;2023-06-22T13:46:05;8.38;;;3.80;;
15693;SDS011;7947;48.834;9.132;2023-06-22T13:49:07;10.48;;;4.30;;
15693;SDS011;7947;48.834;9.132;2023-06-22T13:52:10;6.50;;;4.18;;
15693;SDS011;7947;48.834;9.132;2023-06-22T13:55:14;4.38;;;3.60;;
15693;SDS011;7947;48.834;9.132;2023-06-22T13:58:18;4.95;;;3.55;;
15693;SDS011;7947;48.834;9.132;2023-06-22T14:01:23;6.70;;;4.25;;
15693;SDS011;7947;48.834;9.132;2023-06-22T14:04:26;10.23;;;4.13;;
15693;SDS011;7947;48.834;9.132;2023-06-22T14:07:30;8.35;;;4.03;;
15693;SDS011;7947;48.834;9.132;2023-06-22T14:10:33;6.82;;;3.88;;
15693;SDS011;7947;48.834;9.132;2023-06-22T14:13:37;5.28;;;3.50;;
15693;SDS011;7947;48.834;9.132;2023-06-22T14:16:42;5.13;;;3.90;;
15693;SDS011;7947;48.834;9.132;2023-06-22T14:19:45;7.45;;;3.92;;
15693;SDS011;7947;48.834;9.132;2023-06-22T14:22:48;5.70;;;3.60;;
15693;SDS011;7947;48.834;9.132;2023-06-22T14:25:51;7.03;;;4.00;;
15693;SDS011;7947;48.834;9.132;2023-06-22T14:28:55;6.75;;;4.22;;
15693;SDS011;7947;48.834;9.132;2023-06-22T14:31:58;4.35;;;3.58;;
15693;SDS011;7947;48.834;9.132;2023-06-22T14:35:01;8.52;;;4.28;;
15693;SDS011;7947;48.834;9.132;2023-06-22T14:38:04;7.97;;;3.70;;
15693;SDS011;7947;48.834;9.132;2023-06-22T14:41:07;5.65;;;3.60;;
15693;SDS011;7947;48.834;9.132;2023-06-22T14:44:16;6.80;;;3.28;;
15693;SDS011;7947;48.834;9.132;2023-06-22T14:47:19;5.22;;;3.40;;
15693;SDS011;7947;48.834;9.132;2023-06-22T14:50:22;5.93;;;3.70;;
15693;SDS011;7947;48.834;9.132;2023-06-22T14:53:25;7.00;;;2.95;;
15693;SDS011;7947;48.834;9.132;2023-06-22T14:56:28;5.18;;;2.75;;
15693;SDS011;7947;48.834;9.132;2023-06-22T14:59:34;5.03;;;2.03;;
15693;SDS011;7947;48.834;9.132;2023-06-22T15:02:37;5.05;;;2.22;;
15693;SDS011;7947;48.834;9.132;2023-06-22T15:05:41;4.35;;;2.15;;
15693;SDS011;7947;48.834;9.132;2023-06-22T15:08:43;5.53;;;1.88;;
15693;SDS011;7947;48.834;9.132;2023-06-22T15:11:47;4.07;;;1.95;;
15693;SDS011;7947;48.834;9.132;2023-06-22T15:14:51;4.53;;;2.03;;
15693;SDS011;7947;48.834;9.132;2023-06-22T15:17:54;4.90;;;2.30;;
15693;SDS011;7947;48.834;9.132;2023-06-22T15:20:57;4.43;;;1.98;;
15693;SDS011;7947;48.834;9.132;2023-06-22T15:24:00;5.82;;;1.92;;
15693;SDS011;7947;48.834;9.132;2023-06-22T15:27:04;5.68;;;1.88;;
15693;SDS011;7947;48.834;9.132;2023-06-22T15:30:10;4.88;;;2.13;;
15693;SDS011;7947;48.834;9.132;2023-06-22T15:33:13;5.90;;;2.00;;
15693;SDS011;7947;48.834;9.132;2023-06-22T15:36:16;3.67;;;1.88;;
15693;SDS011;7947;48.834;9.132;2023-06-22T15:39:19;5.55;;;1.95;;
15693;SDS011;7947;48.834;9.132;2023-06-22T15:42:24;5.18;;;2.15;;
15693;SDS011;7947;48.834;9.132;2023-06-22T15:45:28;6.90;;;2.22;;
15693;SDS011;7947;48.834;9.132;2023-06-22T15:48:31;6.60;;;2.28;;
15693;SDS011;7947;48.834;9.132;2023-06-22T15:51:34;6.90;;;3.03;;
15693;SDS011;7947;48.834;9.132;2023-06-22T15:54:37;6.90;;;2.50;;
15693;SDS011;7947;48.834;9.132;2023-06-22T15:57:43;3.90;;;2.22;;
15693;SDS011;7947;48.834;9.132;2023-06-22T16:00:49;4.15;;;1.95;;
15693;SDS011;7947;48.834;9.132;2023-06-22T16:03:54;3.33;;;1.75;;
15693;SDS011;7947;48.834;9.132;2023-06-22T16:06:57;5.15;;;2.20;;
15693;SDS011;7947;48.834;9.132;2023-06-22T16:09:59;5.00;;;2.05;;
15693;SDS011;7947;48.834;9.132;2023-06-22T16:13:02;5.82;;;2.17;;
15693;SDS011;7947;48.834;9.132;2023-06-22T16:16:07;6.57;;;1.98;;
15693;SDS011;7947;48.834;9.132;2023-06-22T16:19:09;4.50;;;2.03;;
15693;SDS011;7947;48.834;9.132;2023-06-22T16:22:12;3.47;;;2.03;;
15693;SDS011;7947;48.834;9.132;2023-06-22T16:25:15;7.50;;;2.58;;
15693;SDS011;7947;48.834;9.132;2023-06-22T16:28:18;4.05;;;2.17;;
15693;SDS011;7947;48.834;9.132;2023-06-22T16:31:22;5.70;;;2.13;;
15693;SDS011;7947;48.834;9.132;2023-06-22T16:34:26;4.15;;;2.08;;
15693;SDS011;7947;48.834;9.132;2023-06-22T16:37:29;5.05;;;2.38;;
15693;SDS011;7947;48.834;9.132;2023-06-22T16:40:32;4.57;;;2.30;;
15693;SDS011;7947;48.834;9.132;2023-06-22T16:43:36;7.57;;;2.10;;
15693;SDS011;7947;48.834;9.132;2023-06-22T16:46:40;6.35;;;2.30;;
15693;SDS011;7947;48.834;9.132;2023-06-22T16:49:45;4.95;;;2.00;;
15693;SDS011;7947;48.834;9.132;2023-06-22T16:52:48;3.45;;;2.08;;
15693;SDS011;7947;48.834;9.132;2023-06-22T16:55:51;4.32;;;1.95;;
15693;SDS011;7947;48.834;9.132;2023-06-22T16:58:55;5.68;;;2.17;;
15693;SDS011;7947;48.834;9.132;2023-06-22T17:02:03;2.88;;;1.58;;
15693;SDS011;7947;48.834;9.132;2023-06-22T17:05:08;3.72;;;2.22;;
15693;SDS011;7947;48.834;9.132;2023-06-22T17:08:12;2.90;;;1.85;;
15693;SDS011;7947;48.834;9.132;2023-06-22T17:11:16;6.15;;;2.25;;
15693;SDS011;7947;48.834;9.132;2023-06-22T17:14:20;5.47;;;2.50;;
15693;SDS011;7947;48.834;9.132;2023-06-22T17:17:24;4.65;;;2.10;;
15693;SDS011;7947;48.834;9.132;2023-06-22T17:20:30;9.02;;;2.08;;
15693;SDS011;7947;48.834;9.132;2023-06-22T17:23:33;4.88;;;1.92;;
15693;SDS011;7947;48.834;9.132;2023-06-22T17:26:36;5.47;;;2.35;;
15693;SDS011;7947;48.834;9.132;2023-06-22T17:29:39;4.25;;;2.13;;
15693;SDS011;7947;48.834;9.132;2023-06-22T17:32:44;2.50;;;1.75;;
15693;SDS011;7947;48.834;9.132;2023-06-22T17:35:48;5.38;;;2.35;;
15693;SDS011;7947;48.834;9.132;2023-06-22T17:38:55;6.90;;;2.30;;
15693;SDS011;7947;48.834;9.132;2023-06-22T17:42:01;4.15;;;2.08;;
15693;SDS011;7947;48.834;9.132;2023-06-22T17:45:13;5.85;;;1.92;;
15693;SDS011;7947;48.834;9.132;2023-06-22T17:48:19;5.93;;;2.20;;
15693;SDS011;7947;48.834;9.132;2023-06-22T17:51:24;4.95;;;1.88;;
15693;SDS011;7947;48.834;9.132;2023-06-22T17:54:29;5.95;;;2.47;;
15693;SDS011;7947;48.834;9.132;2023-06-22T17:57:55;4.88;;;2.08;;
15693;SDS011;7947;48.834;9.132;2023-06-22T18:00:59;3.50;;;1.70;;
15693;SDS011;7947;48.834;9.132;2023-06-22T18:04:07;3.20;;;1.75;;
15693;SDS011;7947;48.834;9.132;2023-06-22T18:07:11;7.60;;;2.10;;
15693;SDS011;7947;48.834;9.132;2023-06-22T18:10:14;3.05;;;1.83;;
15693;SDS011;7947;48.834;9.132;2023-06-22T18:13:16;4.15;;;1.90;;
15693;SDS011;7947;48.834;9.132;2023-06-22T18:16:20;2.78;;;1.50;;
15693;SDS011;7947;48.834;9.132;2023-06-22T18:19:25;5.05;;;1.90;;
15693;SDS011;7947;48.834;9.132;2023-06-22T18:22:29;4.07;;;1.90;;
15693;SDS011;7947;48.834;9.132;2023-06-22T18:25:32;5.93;;;2.00;;
15693;SDS011;7947;48.834;9.132;2023-06-22T18:28:36;5.47;;;2.38;;
15693;SDS011;7947;48.834;9.132;2023-06-22T18:31:39;3.40;;;1.88;;
15693;SDS011;7947;48.834;9.132;2023-06-22T18:34:44;5.65;;;1.92;;
15693;SDS011;7947;48.834;9.132;2023-06-22T18:37:47;5.78;;;2.13;;
15693;SDS011;7947;48.834;9.132;2023-06-22T18:40:52;5.35;;;1.75;;
15693;SDS011;7947;48.834;9.132;2023-06-22T18:43:55;4.65;;;1.52;;
15693;SDS011;7947;48.834;9.132;2023-06-22T18:47:02;3.75;;;1.48;;
15693;SDS011;7947;48.834;9.132;2023-06-22T18:50:08;3.00;;;1.52;;
15693;SDS011;7947;48.834;9.132;2023-06-22T18:53:15;4.53;;;1.60;;
15693;SDS011;7947;48.834;9.132;2023-06-22T18:56:20;5.38;;;2.55;;
15693;SDS011;7947;48.834;9.132;2023-06-22T18:59:40;2.38;;;1.08;;